createdAt,value
2017-11-21T00:01:12.830Z,6.65
2017-11-21T00:03:39.814Z,7.30
2017-11-21T00:06:06.260Z,7.22
2017-11-21T00:08:32.656Z,7.95
2017-11-21T00:10:59.061Z,7.20
2017-11-21T00:13:25.472Z,6.03
2017-11-21T00:15:52.602Z,5.90
2017-11-21T00:18:19.021Z,6.03
2017-11-21T00:20:45.453Z,5.07
2017-11-21T00:23:11.855Z,6.35
2017-11-21T00:25:38.240Z,6.65
2017-11-21T00:28:04.672Z,6.18
2017-11-21T00:30:31.062Z,5.10
2017-11-21T00:32:57.480Z,6.35
2017-11-21T00:35:23.903Z,6.00
2017-11-21T00:37:51.051Z,6.30
2017-11-21T00:40:18.215Z,6.40
2017-11-21T00:42:44.643Z,5.32
2017-11-21T00:45:11.082Z,6.40
2017-11-21T00:47:37.532Z,5.87
2017-11-21T00:50:03.969Z,5.35
2017-11-21T00:52:30.397Z,5.37
2017-11-21T00:54:56.786Z,4.78
2017-11-21T00:57:24.067Z,5.57
2017-11-21T00:59:50.471Z,5.12
2017-11-21T01:02:17.616Z,5.30
2017-11-21T01:04:44.776Z,5.60
2017-11-21T01:07:11.936Z,4.53
2017-11-21T01:09:38.369Z,5.20
2017-11-21T01:12:05.500Z,5.10
2017-11-21T01:14:32.649Z,4.45
2017-11-21T01:16:59.084Z,6.25
2017-11-21T01:19:26.230Z,4.53
2017-11-21T01:21:52.617Z,6.53
2017-11-21T01:24:19.077Z,5.40
2017-11-21T01:26:46.199Z,5.18
2017-11-21T01:29:12.625Z,5.55
2017-11-21T01:31:39.081Z,6.07
2017-11-21T01:34:05.531Z,4.45
2017-11-21T01:36:31.955Z,4.15
2017-11-21T01:38:58.402Z,5.35
2017-11-21T01:41:24.784Z,5.28
2017-11-21T01:43:51.175Z,4.82
2017-11-21T01:46:17.600Z,4.68
2017-11-21T01:48:43.995Z,5.07
2017-11-21T01:51:10.449Z,4.97
2017-11-21T01:53:36.873Z,6.12
2017-11-21T01:56:03.289Z,7.57
2017-11-21T01:58:29.677Z,11.15
2017-11-21T02:00:56.829Z,11.88
2017-11-21T02:03:24.058Z,12.50
2017-11-21T02:05:50.448Z,13.98
2017-11-21T02:08:16.868Z,13.52
2017-11-21T02:10:43.267Z,14.80
2017-11-21T02:13:09.660Z,12.30
2017-11-21T02:15:36.085Z,14.63
2017-11-21T02:18:02.549Z,13.15
2017-11-21T02:20:29.000Z,12.77
2017-11-21T02:22:55.400Z,12.52
2017-11-21T02:25:21.851Z,11.20
2017-11-21T02:27:48.304Z,12.18
2017-11-21T02:30:14.735Z,11.88
2017-11-21T02:32:41.224Z,10.82
2017-11-21T02:35:07.672Z,9.32
2017-11-21T02:37:34.962Z,8.40
2017-11-21T02:40:02.144Z,8.68
2017-11-21T02:42:28.625Z,7.22
2017-11-21T02:44:55.087Z,7.40
2017-11-21T02:47:22.299Z,9.93
2017-11-21T02:49:48.762Z,7.70
2017-11-21T02:52:15.950Z,7.70
2017-11-21T02:54:42.405Z,8.13
2017-11-21T02:57:08.849Z,7.15
2017-11-21T02:59:35.313Z,8.13
2017-11-21T03:02:01.741Z,8.82
2017-11-21T03:04:28.121Z,8.23
2017-11-21T03:06:54.547Z,9.07
2017-11-21T03:09:20.965Z,8.75
2017-11-21T03:11:47.397Z,8.25
2017-11-21T03:14:14.574Z,6.90
2017-11-21T03:16:41.009Z,8.63
2017-11-21T03:19:07.467Z,7.70
2017-11-21T03:21:46.108Z,7.97
2017-11-21T03:27:13.788Z,8.18
2017-11-21T03:29:47.033Z,8.23
2017-11-21T03:32:13.468Z,8.30
2017-11-21T03:34:39.897Z,7.82
2017-11-21T03:37:06.337Z,8.32
2017-11-21T03:39:32.757Z,8.05
2017-11-21T03:41:59.185Z,7.40
2017-11-21T03:44:26.364Z,8.15
2017-11-21T03:46:52.805Z,7.15
2017-11-21T03:49:19.227Z,7.90
2017-11-21T03:51:45.657Z,7.50
2017-11-21T03:54:12.112Z,7.72
2017-11-21T03:56:38.521Z,7.68
2017-11-21T03:59:04.925Z,8.60
2017-11-21T04:01:31.336Z,8.30
2017-11-21T04:03:58.516Z,7.40
2017-11-21T04:06:24.960Z,6.07
2017-11-21T04:08:51.372Z,7.60
2017-11-21T04:11:18.518Z,5.90
2017-11-21T04:13:44.924Z,7.37
2017-11-21T04:16:11.397Z,7.22
2017-11-21T04:18:37.820Z,6.45
2017-11-21T04:21:04.979Z,7.00
2017-11-21T04:23:31.426Z,5.93
2017-11-21T04:25:57.867Z,7.20
2017-11-21T04:28:24.285Z,7.03
2017-11-21T04:30:50.712Z,8.55
2017-11-21T04:33:17.287Z,8.63
2017-11-21T04:35:43.726Z,8.23
2017-11-21T04:38:10.177Z,6.82
2017-11-21T04:40:36.609Z,8.88
2017-11-21T04:43:03.052Z,9.18
2017-11-21T04:45:30.224Z,8.27
2017-11-21T04:47:56.620Z,7.25
2017-11-21T04:50:23.089Z,5.95
2017-11-21T04:52:49.505Z,6.68
2017-11-21T04:55:16.680Z,5.93
2017-11-21T04:57:43.123Z,6.03
2017-11-21T05:00:09.593Z,7.50
2017-11-21T05:02:36.035Z,5.90
2017-11-21T05:05:02.455Z,8.02
2017-11-21T05:07:28.892Z,6.30
2017-11-21T05:09:55.342Z,6.70
2017-11-21T05:12:22.548Z,6.70
2017-11-21T05:14:48.980Z,6.40
2017-11-21T05:17:16.485Z,5.87
2017-11-21T05:19:42.941Z,5.22
2017-11-21T05:22:09.424Z,5.78
2017-11-21T05:24:35.844Z,4.43
2017-11-21T05:27:02.314Z,5.28
2017-11-21T05:29:28.797Z,7.05
2017-11-21T05:31:55.234Z,6.53
2017-11-21T05:34:21.697Z,7.03
2017-11-21T05:36:48.117Z,6.70
2017-11-21T05:39:14.577Z,7.22
2017-11-21T05:41:40.974Z,6.43
2017-11-21T05:44:07.444Z,5.53
2017-11-21T05:46:33.904Z,5.60
2017-11-21T05:49:01.052Z,5.05
2017-11-21T05:51:28.226Z,4.95
2017-11-21T05:53:54.644Z,4.20
2017-11-21T05:56:21.809Z,3.53
2017-11-21T05:58:48.305Z,4.10
2017-11-21T06:01:14.801Z,6.25
2017-11-21T06:03:41.240Z,5.07
2017-11-21T06:06:07.636Z,7.18
2017-11-21T06:08:34.040Z,5.90
2017-11-21T06:11:00.501Z,5.43
2017-11-21T06:13:26.941Z,5.47
2017-11-21T06:15:53.393Z,5.70
2017-11-21T06:18:19.805Z,5.18
2017-11-21T06:20:46.212Z,3.92
2017-11-21T06:23:13.391Z,4.70
2017-11-21T06:25:39.789Z,5.03
2017-11-21T06:28:07.146Z,4.05
2017-11-21T06:30:34.296Z,6.68
2017-11-21T06:33:01.432Z,5.82
2017-11-21T06:35:27.862Z,4.60
2017-11-21T06:37:54.247Z,4.22
2017-11-21T06:40:20.661Z,3.70
2017-11-21T06:42:47.808Z,4.68
2017-11-21T06:45:14.932Z,4.78
2017-11-21T06:47:41.345Z,4.93
2017-11-21T06:50:07.748Z,5.30
2017-11-21T06:52:34.195Z,5.00
2017-11-21T06:55:00.629Z,5.80
2017-11-21T06:57:27.016Z,6.35
2017-11-21T06:59:54.173Z,5.75
2017-11-21T07:02:20.602Z,6.55
2017-11-21T07:04:47.762Z,4.87
2017-11-21T07:07:14.184Z,6.32
2017-11-21T07:09:41.316Z,5.10
2017-11-21T07:12:07.768Z,7.25
2017-11-21T07:14:34.914Z,9.25
2017-11-21T07:17:02.067Z,9.48
2017-11-21T07:19:28.470Z,8.88
2017-11-21T07:21:54.885Z,8.52
2017-11-21T07:24:21.336Z,7.93
2017-11-21T07:26:47.727Z,15.48
2017-11-21T07:29:14.298Z,14.73
2017-11-21T07:31:40.733Z,11.18
2017-11-21T07:34:07.141Z,10.60
2017-11-21T07:36:33.555Z,11.90
2017-11-21T07:39:00.171Z,11.40
2017-11-21T07:41:27.350Z,11.05
2017-11-21T07:43:53.741Z,10.82
2017-11-21T07:46:20.255Z,12.40
2017-11-21T07:48:46.782Z,11.68
2017-11-21T07:51:13.180Z,12.77
2017-11-21T07:53:39.574Z,11.40
2017-11-21T07:56:06.733Z,12.52
2017-11-21T07:58:33.873Z,15.80
2017-11-21T08:01:01.041Z,9.60
2017-11-21T08:03:27.467Z,13.75
2017-11-21T08:05:54.615Z,15.30
2017-11-21T08:08:21.747Z,14.60
2017-11-21T08:10:49.082Z,13.23
2017-11-21T08:13:16.281Z,12.75
2017-11-21T08:15:42.713Z,11.93
2017-11-21T08:18:09.174Z,10.75
2017-11-21T08:20:35.637Z,10.55
2017-11-21T08:23:02.105Z,11.18
2017-11-21T08:25:29.272Z,9.73
2017-11-21T08:27:55.720Z,10.38
2017-11-21T08:30:22.420Z,7.80
2017-11-21T08:32:48.821Z,9.32
2017-11-21T08:35:15.251Z,9.90
2017-11-21T08:37:41.677Z,9.18
2017-11-21T08:40:08.151Z,8.38
2017-11-21T08:42:35.338Z,7.93
2017-11-21T08:45:01.746Z,9.00
2017-11-21T08:47:28.964Z,9.55
2017-11-21T08:49:55.360Z,10.38
2017-11-21T08:52:21.817Z,9.60
2017-11-21T08:54:48.222Z,9.60
2017-11-21T08:57:14.632Z,9.45
2017-11-21T08:59:41.053Z,9.48
2017-11-21T09:02:08.368Z,10.65
2017-11-21T09:04:35.565Z,10.45
2017-11-21T09:07:02.705Z,10.52
2017-11-21T09:09:30.025Z,9.30
2017-11-21T09:11:56.415Z,10.23
2017-11-21T09:14:22.898Z,11.35
2017-11-21T09:16:49.362Z,10.02
2017-11-21T09:19:15.796Z,11.73
2017-11-21T09:21:42.969Z,10.88
2017-11-21T09:24:09.438Z,11.32
2017-11-21T09:26:35.825Z,10.93
2017-11-21T09:29:02.216Z,10.05
2017-11-21T09:31:28.667Z,11.10
2017-11-21T09:33:55.849Z,10.38
2017-11-21T09:36:22.281Z,11.57
2017-11-21T09:38:48.669Z,12.32
2017-11-21T09:41:15.072Z,11.32
2017-11-21T09:43:41.500Z,12.85
2017-11-21T09:46:07.920Z,13.23
2017-11-21T09:48:34.321Z,12.10
2017-11-21T09:51:01.613Z,11.77
2017-11-21T09:53:28.787Z,13.00
2017-11-21T09:55:55.220Z,12.48
2017-11-21T09:58:21.614Z,12.50
2017-11-21T10:00:48.028Z,12.30
2017-11-21T10:03:15.212Z,12.63
2017-11-21T10:05:41.621Z,11.50
2017-11-21T10:08:08.072Z,11.43
2017-11-21T10:10:34.514Z,12.40
2017-11-21T10:13:00.958Z,10.27
2017-11-21T10:15:27.405Z,13.40
2017-11-21T10:17:53.825Z,12.80
2017-11-21T10:20:20.273Z,13.60
2017-11-21T10:22:46.726Z,15.03
2017-11-21T10:25:13.176Z,12.97
2017-11-21T10:27:40.397Z,13.47
2017-11-21T10:30:06.825Z,12.00
2017-11-21T10:32:33.285Z,10.50
2017-11-21T10:35:00.465Z,11.40
2017-11-21T10:37:26.920Z,11.80
2017-11-21T10:39:53.364Z,11.10
2017-11-21T10:42:19.773Z,11.00
2017-11-21T10:44:46.241Z,9.93
2017-11-21T10:47:12.701Z,11.50
2017-11-21T10:49:39.868Z,9.53
2017-11-21T10:52:07.040Z,8.67
2017-11-21T10:54:34.385Z,9.33
2017-11-21T10:57:00.859Z,12.50
2017-11-21T10:59:27.306Z,12.40
2017-11-21T11:01:53.789Z,11.37
2017-11-21T11:04:20.227Z,12.40
2017-11-21T11:06:46.721Z,11.70
2017-11-21T11:09:13.161Z,15.53
2017-11-21T11:11:39.653Z,17.60
2017-11-21T11:14:06.832Z,15.90
2017-11-21T11:16:33.265Z,18.20
2017-11-21T11:18:59.721Z,17.57
2017-11-21T11:21:26.937Z,18.00
2017-11-21T11:23:53.364Z,17.20
2017-11-21T11:26:19.816Z,17.10
2017-11-21T11:28:46.289Z,16.33
2017-11-21T11:31:12.741Z,17.07
2017-11-21T11:33:39.233Z,16.43
2017-11-21T11:36:06.416Z,15.00
2017-11-21T11:38:32.917Z,14.37
2017-11-21T11:41:00.085Z,12.20
2017-11-21T11:43:27.323Z,12.30
2017-11-21T11:45:54.509Z,11.00
2017-11-21T11:48:20.946Z,12.00
2017-11-21T11:50:47.381Z,12.50
2017-11-21T11:53:13.812Z,13.20
2017-11-21T11:55:40.261Z,12.50
2017-11-21T11:58:06.729Z,12.03
2017-11-21T12:00:33.184Z,12.10
2017-11-21T12:03:00.376Z,13.53
2017-11-21T12:05:26.845Z,12.27
2017-11-21T12:07:53.273Z,14.13
2017-11-21T12:10:19.729Z,13.33
2017-11-21T12:12:46.915Z,12.30
2017-11-21T12:15:13.368Z,11.90
2017-11-21T12:17:39.936Z,12.43
2017-11-21T12:20:06.390Z,12.27
2017-11-21T12:22:33.598Z,12.10
2017-11-21T12:25:00.076Z,11.70
2017-11-21T12:27:26.525Z,10.50
2017-11-21T12:29:53.000Z,10.03
2017-11-21T12:32:19.457Z,9.13
2017-11-21T12:34:45.928Z,9.23
2017-11-21T12:37:12.406Z,8.90
2017-11-21T12:39:38.853Z,7.50
2017-11-21T12:42:05.329Z,7.23
2017-11-21T12:44:31.781Z,7.63
2017-11-21T12:46:58.271Z,7.23
2017-11-21T12:49:25.462Z,6.60
2017-11-21T12:51:51.962Z,6.27
2017-11-21T12:54:19.141Z,6.70
2017-11-21T12:56:45.576Z,7.27
2017-11-21T12:59:12.036Z,6.67
2017-11-21T13:01:38.473Z,6.70
2017-11-21T13:04:04.932Z,7.87
2017-11-21T13:06:32.100Z,7.70
2017-11-21T13:08:59.280Z,7.50
2017-11-21T13:11:25.881Z,6.73
2017-11-21T13:13:53.083Z,6.50
2017-11-21T13:16:19.552Z,6.70
2017-11-21T13:18:46.017Z,7.10
2017-11-21T13:21:12.464Z,7.63
2017-11-21T13:23:38.941Z,6.90
2017-11-21T13:26:05.389Z,7.43
2017-11-21T13:28:32.609Z,7.37
2017-11-21T13:30:59.097Z,6.20
2017-11-21T13:33:25.555Z,7.43
2017-11-21T13:35:52.008Z,8.30
2017-11-21T13:38:18.470Z,8.27
2017-11-21T13:40:45.645Z,7.07
2017-11-21T13:43:12.828Z,8.50
2017-11-21T13:45:39.269Z,7.20
2017-11-21T13:48:05.707Z,8.40
2017-11-21T13:50:32.157Z,9.00
2017-11-21T13:52:58.639Z,8.80
2017-11-21T13:55:25.072Z,7.90
2017-11-21T13:57:51.550Z,8.97
2017-11-21T14:00:17.988Z,7.60
2017-11-21T14:02:48.085Z,7.43
2017-11-21T14:05:14.538Z,9.37
2017-11-21T14:07:40.977Z,8.70
2017-11-21T14:10:07.434Z,7.83
2017-11-21T14:12:34.617Z,8.10
2017-11-21T14:15:01.069Z,9.00
2017-11-21T14:17:27.527Z,9.33
2017-11-21T14:19:54.033Z,8.40
2017-11-21T14:22:20.506Z,8.97
2017-11-21T14:24:47.692Z,8.97
2017-11-21T14:27:21.188Z,9.70
2017-11-21T14:29:48.337Z,10.63
2017-11-21T14:32:15.745Z,10.27
2017-11-21T14:34:42.201Z,10.03
2017-11-21T14:37:08.641Z,10.50
2017-11-21T14:39:35.076Z,10.00
2017-11-21T14:42:02.265Z,8.77
2017-11-21T14:44:28.731Z,9.97
2017-11-21T14:46:55.205Z,9.50
2017-11-21T14:49:21.677Z,10.13
2017-11-21T14:51:48.108Z,9.67
2017-11-21T14:54:14.557Z,9.87
2017-11-21T14:56:41.035Z,9.13
2017-11-21T14:59:08.221Z,7.90
2017-11-21T15:01:34.680Z,9.23
2017-11-21T15:04:01.157Z,8.83
2017-11-21T15:06:27.614Z,8.23
2017-11-21T15:08:54.094Z,11.20
2017-11-21T15:11:20.528Z,9.07
2017-11-21T15:13:47.018Z,11.00
2017-11-21T15:16:13.461Z,9.30
2017-11-21T15:18:39.915Z,9.10
2017-11-21T15:21:06.386Z,8.40
2017-11-21T15:23:33.569Z,9.33
2017-11-21T15:26:00.057Z,11.73
2017-11-21T15:28:26.527Z,10.30
2017-11-21T15:30:52.995Z,9.60
2017-11-21T15:33:19.429Z,8.77
2017-11-21T15:35:45.972Z,8.67
2017-11-21T15:38:12.400Z,10.23
2017-11-21T15:40:39.578Z,9.07
2017-11-21T15:43:06.073Z,8.43
2017-11-21T15:45:32.477Z,10.30
2017-11-21T15:47:58.916Z,8.73
2017-11-21T15:50:25.353Z,9.97
2017-11-21T15:52:51.800Z,10.77
2017-11-21T15:55:18.281Z,11.50
2017-11-21T15:57:44.701Z,12.70
2017-11-21T16:00:11.153Z,16.10
2017-11-21T16:02:38.353Z,14.60
2017-11-21T16:05:04.781Z,15.27
2017-11-21T16:07:31.330Z,13.20
2017-11-21T16:09:57.783Z,14.13
2017-11-21T16:12:24.223Z,19.73
2017-11-21T16:14:50.661Z,14.63
2017-11-21T16:17:17.112Z,13.63
2017-11-21T16:19:44.292Z,13.17
2017-11-21T16:22:10.741Z,15.33
2017-11-21T16:24:37.197Z,16.55
2017-11-21T16:27:03.780Z,17.70
2017-11-21T16:29:30.293Z,17.75
2017-11-21T16:31:56.714Z,15.47
2017-11-21T16:34:23.171Z,17.13
2017-11-21T16:36:49.601Z,20.50
2017-11-21T16:39:16.065Z,20.88
2017-11-21T16:41:42.489Z,20.55
2017-11-21T16:44:08.942Z,20.70
2017-11-21T16:46:35.358Z,21.33
2017-11-21T16:49:01.804Z,20.65
2017-11-21T16:51:28.221Z,22.35
2017-11-21T16:53:54.789Z,23.20
2017-11-21T16:56:21.988Z,22.52
2017-11-21T16:58:48.445Z,22.50
2017-11-21T17:01:14.903Z,23.12
2017-11-21T17:03:41.361Z,19.75
2017-11-21T17:06:07.881Z,18.58
2017-11-21T17:08:34.337Z,19.58
2017-11-21T17:11:00.781Z,20.20
2017-11-21T17:13:28.247Z,18.92
2017-11-21T17:15:55.387Z,17.95
2017-11-21T17:18:22.539Z,16.92
2017-11-21T17:20:49.717Z,17.45
2017-11-21T17:23:16.148Z,20.25
2017-11-21T17:25:42.606Z,17.50
2017-11-21T17:28:09.016Z,17.75
2017-11-21T17:30:35.473Z,17.02
2017-11-21T17:33:01.914Z,19.55
2017-11-21T17:35:28.313Z,19.60
2017-11-21T17:37:54.737Z,19.77
2017-11-21T17:40:21.176Z,22.65
2017-11-21T17:42:47.653Z,23.60
2017-11-21T17:45:14.136Z,22.23
2017-11-21T17:47:41.336Z,23.62
2017-11-21T17:50:07.799Z,24.20
2017-11-21T17:52:34.981Z,25.70
2017-11-21T17:55:01.468Z,24.90
2017-11-21T17:57:27.903Z,24.35
2017-11-21T17:59:55.367Z,23.93
2017-11-21T18:02:21.828Z,24.33
2017-11-21T18:04:48.996Z,23.77
2017-11-21T18:07:15.405Z,20.75
2017-11-21T18:09:42.619Z,21.30
2017-11-21T18:12:09.064Z,24.35
2017-11-21T18:14:35.510Z,27.80
2017-11-21T18:17:01.962Z,25.65
2017-11-21T18:19:28.413Z,25.12
2017-11-21T18:21:54.847Z,23.45
2017-11-21T18:24:21.277Z,27.87
2017-11-21T18:26:47.701Z,24.00
2017-11-21T18:29:14.108Z,21.55
2017-11-21T18:31:41.277Z,18.62
2017-11-21T18:34:07.757Z,21.48
2017-11-21T18:36:34.191Z,28.67
2017-11-21T18:39:00.609Z,31.00
2017-11-21T18:41:27.033Z,25.67
2017-11-21T18:43:53.485Z,29.10
2017-11-21T18:46:19.909Z,28.50
2017-11-21T18:48:46.345Z,28.07
2017-11-21T18:51:12.756Z,26.13
2017-11-21T18:53:39.204Z,25.50
2017-11-21T18:56:05.661Z,26.87
2017-11-21T18:58:32.097Z,25.85
2017-11-21T19:00:59.304Z,24.58
2017-11-21T19:03:25.723Z,24.42
2017-11-21T19:05:52.927Z,26.60
2017-11-21T19:08:19.372Z,26.70
2017-11-21T19:10:46.568Z,25.33
2017-11-21T19:13:13.020Z,25.73
2017-11-21T19:15:39.485Z,26.12
2017-11-21T19:18:05.887Z,26.00
2017-11-21T19:20:32.360Z,27.23
2017-11-21T19:22:58.793Z,24.87
2017-11-21T19:25:25.194Z,26.25
2017-11-21T19:27:51.639Z,25.40
2017-11-21T19:30:18.065Z,23.50
2017-11-21T19:32:44.499Z,27.00
2017-11-21T19:35:10.925Z,21.35
2017-11-21T19:37:37.310Z,23.60
2017-11-21T19:40:04.498Z,26.62
2017-11-21T19:42:30.941Z,25.40
2017-11-21T19:44:57.381Z,28.87
2017-11-21T19:47:23.847Z,25.83
2017-11-21T19:49:50.364Z,34.27
2017-11-21T19:52:16.823Z,33.45
2017-11-21T19:54:43.263Z,35.97
2017-11-21T19:57:10.480Z,33.28
2017-11-21T19:59:37.052Z,37.53
2017-11-21T20:02:03.620Z,37.40
2017-11-21T20:04:30.064Z,35.05
2017-11-21T20:06:56.479Z,32.97
2017-11-21T20:09:22.917Z,31.02
2017-11-21T20:11:49.699Z,28.25
2017-11-21T20:14:16.166Z,28.87
2017-11-21T20:16:43.316Z,28.02
2017-11-21T20:19:10.593Z,23.67
2017-11-21T20:21:36.992Z,26.73
2017-11-21T20:24:03.417Z,22.17
2017-11-21T20:26:30.033Z,24.27
2017-11-21T20:28:56.478Z,23.30
2017-11-21T20:31:22.963Z,22.40
2017-11-21T20:33:49.459Z,22.67
2017-11-21T20:36:15.910Z,23.47
2017-11-21T20:38:43.163Z,22.17
2017-11-21T20:41:10.427Z,22.30
2017-11-21T20:43:37.288Z,22.48
2017-11-21T20:46:03.852Z,23.05
2017-11-21T20:48:30.272Z,21.05
2017-11-21T20:51:03.677Z,21.98
2017-11-21T20:53:30.199Z,21.02
2017-11-21T20:55:56.921Z,22.27
2017-11-21T20:58:23.562Z,23.30
2017-11-21T21:00:50.049Z,24.27
2017-11-21T21:03:16.527Z,26.20
2017-11-21T21:05:43.009Z,28.62
2017-11-21T21:08:09.510Z,29.73
2017-11-21T21:10:35.964Z,29.85
2017-11-21T21:13:02.373Z,29.08
2017-11-21T21:15:28.775Z,32.30
2017-11-21T21:17:55.932Z,30.20
2017-11-21T21:20:23.077Z,34.58
2017-11-21T21:22:50.245Z,34.50
2017-11-21T21:25:16.625Z,35.83
2017-11-21T21:27:43.186Z,32.35
2017-11-21T21:30:10.389Z,29.17
2017-11-21T21:32:36.821Z,26.95
2017-11-21T21:35:03.221Z,24.27
2017-11-21T21:37:29.629Z,24.15
2017-11-21T21:39:56.044Z,26.23
2017-11-21T21:42:22.482Z,21.37
2017-11-21T21:44:48.902Z,19.85
2017-11-21T21:47:15.332Z,19.40
2017-11-21T21:49:41.733Z,19.33
2017-11-21T21:52:08.205Z,17.90
2017-11-21T21:54:35.519Z,17.48
2017-11-21T21:57:02.125Z,19.83
2017-11-21T21:59:28.601Z,17.80
2017-11-21T22:01:55.018Z,20.50
2017-11-21T22:04:21.842Z,19.25
2017-11-21T22:06:48.736Z,19.37
2017-11-21T22:09:15.226Z,18.92
2017-11-21T22:11:42.421Z,18.37
2017-11-21T22:14:09.703Z,17.83
2017-11-21T22:16:36.147Z,17.65
2017-11-21T22:19:02.616Z,18.00
2017-11-21T22:21:29.045Z,19.58
2017-11-21T22:23:55.465Z,15.73
2017-11-21T22:26:22.624Z,14.95
2017-11-21T22:28:49.041Z,15.95
2017-11-21T22:31:15.469Z,15.60
2017-11-21T22:33:42.644Z,15.43
2017-11-21T22:36:09.056Z,15.43
2017-11-21T22:38:36.220Z,15.02
2017-11-21T22:41:03.076Z,16.25
2017-11-21T22:43:29.736Z,17.52
2017-11-21T22:45:56.144Z,15.20
2017-11-21T22:48:22.640Z,15.13
2017-11-21T22:50:49.837Z,16.15
2017-11-21T22:53:16.279Z,15.90
2017-11-21T22:55:42.948Z,16.90
2017-11-21T22:58:10.165Z,17.05
2017-11-21T23:00:36.599Z,17.23
2017-11-21T23:03:03.109Z,16.92
2017-11-21T23:05:29.566Z,16.20
2017-11-21T23:07:56.008Z,15.68
2017-11-21T23:10:22.628Z,16.25
2017-11-21T23:12:49.026Z,16.27
2017-11-21T23:15:16.212Z,18.80
2017-11-21T23:17:42.621Z,15.82
2017-11-21T23:20:09.817Z,16.20
2017-11-21T23:22:36.256Z,16.65
2017-11-21T23:25:02.664Z,15.13
2017-11-21T23:27:29.133Z,15.48
2017-11-21T23:29:55.566Z,14.10
2017-11-21T23:32:22.005Z,14.40
2017-11-21T23:34:48.392Z,13.80
2017-11-21T23:37:14.845Z,14.95
2017-11-21T23:39:41.281Z,15.65
2017-11-21T23:42:07.700Z,14.68
2017-11-21T23:44:34.132Z,14.95
2017-11-21T23:47:00.553Z,14.63
2017-11-21T23:49:26.971Z,14.90
2017-11-21T23:51:54.112Z,13.45
2017-11-21T23:54:21.291Z,13.45
2017-11-21T23:56:47.724Z,14.27
2017-11-21T23:59:14.141Z,17.25
